Shrewsbury, New Jersey
Current Conditions -  °F | °C
As of 11:55 AM on Wednesday 22 Oct 2014 (Local Time) from KBLM Reporting Station
Overcast Overcast  
Wind Chill: 54°   Ceiling: 800
Heat Index: 54°   Visibility: 6mi
Dew Point: 48°   Wind: 15mph
Humidity: 82%   Direction: 20°NNE
Pressure: 29.87"   Gusts: 18mph
Location:  40.33°N, 74.06°W
Report Text: KBLM 221555Z AUTO 02013G16KT 6SM BKN008 OVC015 12/09 A2987 RMK AO1 P0007
Loading
Personal Weather Stations






























Interactive Weather Map
Tropical Storm Tracking
New forecast layout! Learn more

10-Day Weather Forecast

Advertisements
Track Severe Weather on mobile